createdAt,value
2017-06-04T00:02:16.280Z,25.06
2017-06-04T00:04:44.548Z,27.48
2017-06-04T00:07:12.056Z,29.94
2017-06-04T00:09:40.391Z,40.84
2017-06-04T00:12:08.681Z,33.86
2017-06-04T00:14:36.991Z,30.34
2017-06-04T00:17:04.561Z,27.22
2017-06-04T00:19:32.861Z,29.82
2017-06-04T00:22:01.163Z,28.20
2017-06-04T00:24:29.623Z,29.82
2017-06-04T00:26:57.910Z,32.90
2017-06-04T00:29:26.207Z,30.68
2017-06-04T00:31:54.537Z,31.66
2017-06-04T00:34:22.812Z,30.70
2017-06-04T00:36:50.391Z,33.16
2017-06-04T00:39:18.679Z,34.52
2017-06-04T00:41:46.987Z,33.40
2017-06-04T00:44:15.315Z,36.90
2017-06-04T00:46:42.852Z,38.96
2017-06-04T00:49:10.379Z,40.26
2017-06-04T00:51:38.713Z,35.82
2017-06-04T00:54:06.267Z,41.38
2017-06-04T00:56:34.562Z,40.98
2017-06-04T00:59:02.893Z,37.86
2017-06-04T01:01:31.193Z,44.28
2017-06-04T01:03:58.761Z,40.78
2017-06-04T01:06:26.302Z,41.88
2017-06-04T01:08:53.830Z,44.78
2017-06-04T01:11:22.191Z,38.68
2017-06-04T01:13:50.511Z,40.52
2017-06-04T01:16:18.059Z,42.12
2017-06-04T01:18:45.635Z,45.74
2017-06-04T01:21:13.988Z,40.56
2017-06-04T01:23:41.521Z,38.44
2017-06-04T01:26:09.851Z,35.06
2017-06-04T01:28:37.396Z,43.38
2017-06-04T01:31:05.703Z,43.28
2017-06-04T01:33:34.037Z,44.36
2017-06-04T01:36:01.576Z,45.52
2017-06-04T01:38:29.101Z,46.74
2017-06-04T01:40:57.433Z,37.92
2017-06-04T01:43:25.735Z,48.12
2017-06-04T01:45:54.032Z,37.62
2017-06-04T01:48:22.376Z,41.60
2017-06-04T01:50:50.669Z,37.62
2017-06-04T01:53:18.952Z,38.76
2017-06-04T01:55:47.307Z,40.96
2017-06-04T01:58:14.840Z,30.36
2017-06-04T02:00:43.128Z,33.08
2017-06-04T02:03:11.489Z,42.72
2017-06-04T02:05:39.777Z,31.80
2017-06-04T02:08:08.064Z,36.98
2017-06-04T02:10:36.389Z,33.78
2017-06-04T02:13:03.922Z,34.34
2017-06-04T02:15:31.448Z,30.58
2017-06-04T02:17:59.817Z,32.76
2017-06-04T02:20:28.112Z,32.66
2017-06-04T02:22:56.387Z,35.36
2017-06-04T02:25:24.688Z,37.86
2017-06-04T02:27:52.257Z,31.90
2017-06-04T02:30:20.536Z,33.92
2017-06-04T02:32:48.060Z,35.42
2017-06-04T02:35:16.365Z,33.32
2017-06-04T02:37:43.885Z,31.72
2017-06-04T02:40:12.204Z,36.46
2017-06-04T02:42:40.500Z,33.78
2017-06-04T02:45:08.780Z,34.08
2017-06-04T02:47:37.084Z,32.24
2017-06-04T02:50:05.339Z,31.98
2017-06-04T02:52:32.896Z,35.66
2017-06-04T02:55:01.207Z,31.08
2017-06-04T02:57:29.508Z,36.56
2017-06-04T02:59:57.760Z,35.62
2017-06-04T03:02:25.289Z,33.04
2017-06-04T03:04:53.610Z,29.30
2017-06-04T03:07:21.885Z,33.04
2017-06-04T03:09:50.168Z,30.94
2017-06-04T03:12:17.721Z,35.82
2017-06-04T03:14:45.991Z,31.58
2017-06-04T03:17:13.493Z,33.04
2017-06-04T03:19:41.796Z,31.22
2017-06-04T03:22:10.078Z,31.78
2017-06-04T03:24:37.634Z,31.04
2017-06-04T03:27:05.139Z,29.98
2017-06-04T03:29:33.436Z,28.32
2017-06-04T03:32:01.753Z,29.96
2017-06-04T03:34:30.020Z,34.40
2017-06-04T03:36:57.535Z,35.92
2017-06-04T03:39:25.829Z,32.66
2017-06-04T03:41:54.092Z,32.00
2017-06-04T03:44:22.479Z,28.40
2017-06-04T03:46:49.986Z,31.62
2017-06-04T03:49:18.255Z,28.58
2017-06-04T03:51:46.595Z,30.20
2017-06-04T03:54:14.855Z,31.18
2017-06-04T03:56:43.128Z,27.88
2017-06-04T03:59:10.662Z,28.38
2017-06-04T04:01:38.953Z,28.60
2017-06-04T04:04:07.288Z,27.20
2017-06-04T04:06:34.824Z,32.04
2017-06-04T04:09:03.136Z,32.64
2017-06-04T04:11:31.416Z,26.50
2017-06-04T04:13:59.751Z,27.00
2017-06-04T04:16:28.064Z,26.44
2017-06-04T04:18:55.581Z,29.10
2017-06-04T04:21:23.916Z,31.70
2017-06-04T04:23:52.198Z,26.60
2017-06-04T04:26:19.723Z,28.20
2017-06-04T04:28:47.280Z,27.50
2017-06-04T04:31:15.610Z,25.22
2017-06-04T04:33:43.136Z,31.64
2017-06-04T04:36:11.416Z,26.42
2017-06-04T04:38:39.737Z,22.50
2017-06-04T04:41:08.021Z,28.66
2017-06-04T04:43:35.581Z,29.30
2017-06-04T04:46:03.096Z,23.56
2017-06-04T04:48:30.609Z,25.08
2017-06-04T04:50:58.928Z,24.72
2017-06-04T04:53:27.208Z,29.42
2017-06-04T04:55:55.528Z,29.64
2017-06-04T04:58:23.821Z,27.78
2017-06-04T05:00:52.122Z,27.16
2017-06-04T05:03:19.686Z,24.72
2017-06-04T05:05:47.985Z,22.64
2017-06-04T05:08:16.293Z,28.68
2017-06-04T05:10:44.642Z,27.28
2017-06-04T05:13:12.162Z,26.36
2017-06-04T05:15:39.683Z,28.30
2017-06-04T05:18:08.020Z,26.10
2017-06-04T05:20:36.344Z,26.18
2017-06-04T05:23:04.644Z,28.36
2017-06-04T05:25:32.972Z,27.34
2017-06-04T05:28:01.308Z,26.34
2017-06-04T05:30:29.600Z,23.78
2017-06-04T05:32:57.888Z,23.64
2017-06-04T05:35:25.478Z,25.40
2017-06-04T05:37:53.760Z,27.90
2017-06-04T05:40:22.028Z,26.38
2017-06-04T05:42:50.329Z,22.26
2017-06-04T05:45:17.892Z,27.20
2017-06-04T05:47:45.396Z,33.08
2017-06-04T05:50:13.744Z,28.32
2017-06-04T05:52:41.275Z,29.94
2017-06-04T05:55:08.789Z,28.32
2017-06-04T05:57:36.354Z,25.50
2017-06-04T06:00:04.644Z,29.56
2017-06-04T06:02:32.929Z,33.74
2017-06-04T06:05:00.493Z,35.60
2017-06-04T06:07:28.025Z,33.46
2017-06-04T06:09:56.373Z,38.48
2017-06-04T06:12:23.950Z,34.86
2017-06-04T06:14:51.509Z,46.00
2017-06-04T06:17:19.064Z,40.54
2017-06-04T06:19:47.420Z,40.56
2017-06-04T06:22:14.974Z,44.62
2017-06-04T06:24:42.568Z,41.00
2017-06-04T06:27:10.144Z,37.16
2017-06-04T06:29:37.673Z,35.00
2017-06-04T06:32:06.004Z,37.94
2017-06-04T06:34:33.615Z,36.20
2017-06-04T06:37:01.228Z,37.94
2017-06-04T06:39:28.764Z,37.16
2017-06-04T06:41:57.108Z,30.12
2017-06-04T06:44:24.708Z,34.44
2017-06-04T06:46:52.264Z,36.60
2017-06-04T06:49:19.816Z,31.48
2017-06-04T06:51:48.186Z,34.20
2017-06-04T06:54:15.709Z,31.62
2017-06-04T06:56:43.287Z,33.14
2017-06-04T06:59:10.872Z,31.80
2017-06-04T07:01:39.193Z,29.22
2017-06-04T07:04:06.762Z,26.56
2017-06-04T07:06:34.376Z,24.14
2017-06-04T07:09:01.976Z,31.24
2017-06-04T07:11:30.352Z,24.84
2017-06-04T07:13:57.901Z,22.88
2017-06-04T07:16:25.465Z,21.46
2017-06-04T07:18:53.068Z,28.32
2017-06-04T07:21:21.373Z,26.30
2017-06-04T07:23:48.961Z,24.32
2017-06-04T07:26:16.597Z,28.84
2017-06-04T07:28:44.196Z,37.28
2017-06-04T07:31:12.540Z,27.16
2017-06-04T07:33:40.133Z,23.50
2017-06-04T07:36:08.655Z,35.52
2017-06-04T07:38:36.273Z,24.16
2017-06-04T07:41:04.604Z,24.92
2017-06-04T07:43:32.148Z,24.50
2017-06-04T07:45:59.769Z,30.88
2017-06-04T07:48:27.301Z,30.44
2017-06-04T07:50:55.593Z,22.44
2017-06-04T07:53:23.199Z,24.92
2017-06-04T07:55:51.476Z,31.90
2017-06-04T07:58:19.300Z,23.58
2017-06-04T08:00:47.623Z,25.26
2017-06-04T08:03:15.136Z,21.90
2017-06-04T08:05:42.693Z,22.38
2017-06-04T08:08:10.980Z,24.76
2017-06-04T08:10:39.266Z,20.74
2017-06-04T08:13:06.846Z,24.06
2017-06-04T08:15:34.364Z,25.12
2017-06-04T08:18:01.912Z,19.76
2017-06-04T08:20:30.224Z,26.20
2017-06-04T08:22:57.731Z,21.92
2017-06-04T08:25:25.237Z,19.80
2017-06-04T08:27:53.539Z,27.46
2017-06-04T08:30:21.817Z,20.80
2017-06-04T08:32:49.376Z,19.30
2017-06-04T08:35:16.895Z,22.84
2017-06-04T08:37:44.422Z,17.70
2017-06-04T08:40:12.767Z,27.74
2017-06-04T08:42:40.304Z,17.94
2017-06-04T08:45:07.830Z,22.84
2017-06-04T08:47:35.408Z,20.24
2017-06-04T08:50:03.692Z,24.06
2017-06-04T08:52:31.213Z,19.80
2017-06-04T08:54:58.760Z,20.50
2017-06-04T08:57:26.276Z,15.76
2017-06-04T08:59:54.594Z,21.62
2017-06-04T09:02:22.120Z,20.42
2017-06-04T09:04:49.670Z,23.60
2017-06-04T09:07:17.191Z,20.58
2017-06-04T09:09:46.105Z,15.50
2017-06-04T09:12:14.390Z,20.80
2017-06-04T09:14:41.910Z,24.26
2017-06-04T09:17:09.476Z,23.24
2017-06-04T09:19:37.046Z,16.56
2017-06-04T09:22:05.340Z,18.48
2017-06-04T09:24:33.620Z,16.34
2017-06-04T09:27:01.160Z,16.60
2017-06-04T09:29:28.719Z,16.08
2017-06-04T09:31:56.990Z,14.35
2017-06-04T09:34:24.520Z,15.80
2017-06-04T09:36:52.852Z,14.36
2017-06-04T09:39:21.148Z,12.86
2017-06-04T09:41:49.438Z,12.40
2017-06-04T09:44:17.019Z,20.40
2017-06-04T09:46:44.548Z,19.34
2017-06-04T09:49:12.068Z,18.74
2017-06-04T09:51:40.380Z,15.70
2017-06-04T09:54:07.911Z,17.26
2017-06-04T09:56:35.486Z,15.48
2017-06-04T09:59:03.009Z,12.98
2017-06-04T10:01:31.289Z,15.88
2017-06-04T10:03:58.849Z,16.74
2017-06-04T10:06:26.422Z,16.48
2017-06-04T10:08:53.937Z,18.54
2017-06-04T10:11:22.261Z,22.92
2017-06-04T10:13:49.785Z,14.08
2017-06-04T10:16:17.298Z,16.42
2017-06-04T10:18:44.888Z,18.44
2017-06-04T10:21:13.165Z,12.92
2017-06-04T10:23:40.688Z,12.24
2017-06-04T10:26:08.460Z,11.62
2017-06-04T10:28:35.980Z,12.62
2017-06-04T10:31:04.256Z,14.60
2017-06-04T10:33:31.796Z,12.66
2017-06-04T10:35:59.324Z,15.94
2017-06-04T10:38:26.864Z,15.96
2017-06-04T10:40:55.210Z,12.02
2017-06-04T10:43:22.740Z,20.70
2017-06-04T10:45:51.029Z,17.12
2017-06-04T10:48:18.574Z,13.24
2017-06-04T10:50:46.869Z,12.16
2017-06-04T10:53:14.417Z,12.08
2017-06-04T10:55:41.939Z,12.56
2017-06-04T10:58:09.486Z,16.28
2017-06-04T11:00:37.816Z,14.00
2017-06-04T11:03:05.353Z,11.84
2017-06-04T11:05:32.941Z,13.90
2017-06-04T11:08:00.521Z,13.76
2017-06-04T11:10:28.841Z,16.88
2017-06-04T11:12:56.376Z,16.46
2017-06-04T11:15:23.960Z,13.42
2017-06-04T11:17:51.484Z,20.74
2017-06-04T11:20:19.781Z,13.58
2017-06-04T11:22:47.348Z,12.62
2017-06-04T11:25:14.878Z,11.86
2017-06-04T11:27:42.461Z,9.34
2017-06-04T11:30:10.732Z,8.90
2017-06-04T11:32:38.253Z,10.14
2017-06-04T11:35:05.799Z,13.64
2017-06-04T11:37:34.826Z,11.56
2017-06-04T11:40:03.332Z,8.52
2017-06-04T11:42:30.885Z,8.02
2017-06-04T11:44:58.421Z,7.78
2017-06-04T11:47:25.971Z,12.88
2017-06-04T11:49:54.288Z,8.64
2017-06-04T11:52:21.862Z,9.54
2017-06-04T11:54:49.396Z,9.32
2017-06-04T11:57:17.004Z,11.52
2017-06-04T11:59:44.864Z,8.62
2017-06-04T12:02:13.217Z,10.32
2017-06-04T12:04:40.977Z,12.08
2017-06-04T12:07:08.576Z,9.34
2017-06-04T12:09:36.164Z,9.86
2017-06-04T12:12:04.440Z,12.74
2017-06-04T12:14:31.961Z,15.92
2017-06-04T12:16:59.517Z,15.76
2017-06-04T12:19:27.052Z,16.62
2017-06-04T12:21:55.340Z,18.26
2017-06-04T12:24:22.966Z,17.12
2017-06-04T12:26:50.521Z,16.46
2017-06-04T12:29:18.108Z,20.28
2017-06-04T12:31:46.553Z,17.78
2017-06-04T12:34:14.220Z,15.54
2017-06-04T12:36:41.866Z,15.88
2017-06-04T12:39:09.528Z,13.98
2017-06-04T12:41:37.892Z,9.70
2017-06-04T12:44:05.561Z,18.14
2017-06-04T12:46:33.146Z,9.36
2017-06-04T12:49:22.730Z,9.74
2017-06-04T12:51:51.501Z,9.10
2017-06-04T12:57:01.537Z,9.40
2017-06-04T12:59:29.498Z,12.18
2017-06-04T13:01:57.947Z,7.52
2017-06-04T13:04:26.697Z,5.08
2017-06-04T13:06:54.389Z,7.82
2017-06-04T13:09:24.125Z,7.00
2017-06-04T13:11:52.582Z,11.74
2017-06-04T13:14:20.829Z,5.96
2017-06-04T13:16:48.712Z,5.26
2017-06-04T13:19:20.745Z,6.10
2017-06-04T13:21:55.808Z,6.76
2017-06-04T13:24:32.259Z,4.94
2017-06-04T13:27:02.506Z,9.34
2017-06-04T13:29:30.081Z,9.92
2017-06-04T13:31:58.385Z,9.32
2017-06-04T13:34:25.966Z,7.92
2017-06-04T13:36:53.537Z,5.10
2017-06-04T13:39:21.124Z,5.76
2017-06-04T13:41:49.437Z,5.80
2017-06-04T13:44:17.997Z,9.82
2017-06-04T13:46:45.548Z,8.18
2017-06-04T13:49:13.876Z,6.10
2017-06-04T13:51:42.253Z,6.46
2017-06-04T13:54:09.799Z,4.96
2017-06-04T13:56:37.382Z,15.82
2017-06-04T13:59:05.015Z,5.14
2017-06-04T14:01:33.329Z,5.98
2017-06-04T14:04:00.893Z,9.30
2017-06-04T14:06:28.516Z,15.72
2017-06-04T14:08:56.065Z,4.70
2017-06-04T14:11:24.404Z,4.48
2017-06-04T14:13:52.017Z,9.84
2017-06-04T14:16:19.613Z,10.34
2017-06-04T14:18:47.129Z,5.56
2017-06-04T14:21:15.457Z,10.30
2017-06-04T14:23:42.960Z,6.60
2017-06-04T14:26:10.528Z,12.16
2017-06-04T14:28:38.089Z,8.34
2017-06-04T14:31:06.356Z,5.80
2017-06-04T14:33:33.908Z,4.28
2017-06-04T14:36:01.444Z,7.52
2017-06-04T14:38:29.026Z,6.74
2017-06-04T14:40:57.337Z,10.16
2017-06-04T14:43:24.878Z,5.84
2017-06-04T14:45:52.448Z,4.34
2017-06-04T14:48:19.977Z,8.18
2017-06-04T14:50:48.265Z,5.62
2017-06-04T14:53:16.628Z,6.36
2017-06-04T14:55:44.141Z,4.46
2017-06-04T14:58:11.649Z,6.32
2017-06-04T15:00:39.989Z,3.90
2017-06-04T15:03:07.509Z,5.44
2017-06-04T15:05:35.028Z,5.76
2017-06-04T15:08:02.564Z,7.32
2017-06-04T15:10:30.881Z,15.88
2017-06-04T15:12:58.457Z,4.24
2017-06-04T15:15:26.020Z,9.38
2017-06-04T15:17:53.567Z,5.14
2017-06-04T15:20:21.902Z,7.90
2017-06-04T15:22:49.432Z,5.84
2017-06-04T15:25:17.010Z,7.96
2017-06-04T15:27:44.548Z,7.92
2017-06-04T15:30:12.828Z,3.00
2017-06-04T15:32:40.369Z,10.54
2017-06-04T15:35:07.892Z,7.48
2017-06-04T15:37:35.468Z,4.68
2017-06-04T15:40:03.802Z,5.82
2017-06-04T15:42:31.369Z,8.02
2017-06-04T15:44:58.974Z,7.16
2017-06-04T15:47:26.607Z,8.04
2017-06-04T15:49:54.896Z,10.56
2017-06-04T15:52:22.434Z,8.56
2017-06-04T15:54:49.988Z,7.92
2017-06-04T15:57:17.512Z,4.14
2017-06-04T15:59:45.051Z,5.68
2017-06-04T16:02:13.371Z,6.20
2017-06-04T16:04:41.673Z,5.56
2017-06-04T16:07:09.189Z,4.26
2017-06-04T16:09:36.760Z,4.00
2017-06-04T16:12:05.056Z,7.00
2017-06-04T16:14:32.552Z,8.80
2017-06-04T16:17:00.081Z,4.52
2017-06-04T16:19:27.608Z,5.60
2017-06-04T16:21:55.960Z,6.82
2017-06-04T16:24:23.481Z,4.24
2017-06-04T16:26:51.009Z,9.02
2017-06-04T16:29:18.540Z,6.10
2017-06-04T16:31:46.858Z,6.78
2017-06-04T16:34:14.583Z,4.54
2017-06-04T16:36:42.209Z,6.92
2017-06-04T16:39:09.769Z,6.48
2017-06-04T16:41:38.167Z,8.90
2017-06-04T16:44:05.780Z,3.64
2017-06-04T16:46:33.409Z,5.30
2017-06-04T16:49:00.998Z,3.28
2017-06-04T16:51:29.306Z,8.66
2017-06-04T16:53:56.903Z,5.56
2017-06-04T16:56:24.546Z,6.78
2017-06-04T16:58:52.102Z,11.50
2017-06-04T17:01:20.444Z,4.16
2017-06-04T17:03:48.087Z,8.98
2017-06-04T17:06:15.715Z,11.72
2017-06-04T17:08:43.317Z,6.40
2017-06-04T17:11:11.644Z,5.72
2017-06-04T17:13:39.243Z,5.40
2017-06-04T17:16:06.836Z,7.44
2017-06-04T17:18:34.408Z,9.18
2017-06-04T17:21:02.770Z,5.56
2017-06-04T17:23:30.381Z,9.94
2017-06-04T17:25:57.969Z,6.68
2017-06-04T17:28:25.613Z,4.84
2017-06-04T17:30:53.925Z,6.40
2017-06-04T17:33:21.593Z,5.42
2017-06-04T17:35:49.182Z,5.66
2017-06-04T17:38:16.712Z,7.70
2017-06-04T17:40:45.076Z,9.78
2017-06-04T17:43:12.701Z,7.86
2017-06-04T17:45:40.262Z,5.06
2017-06-04T17:48:07.794Z,4.64
2017-06-04T17:50:36.208Z,6.78
2017-06-04T17:53:03.771Z,5.14
2017-06-04T17:55:31.324Z,5.28
2017-06-04T17:57:58.941Z,5.38
2017-06-04T18:00:27.325Z,7.48
2017-06-04T18:02:54.897Z,7.74
2017-06-04T18:05:22.525Z,9.68
2017-06-04T18:07:50.059Z,11.82
2017-06-04T18:10:18.420Z,5.18
2017-06-04T18:12:45.992Z,2.96
2017-06-04T18:15:13.536Z,4.94
2017-06-04T18:17:41.114Z,9.28
2017-06-04T18:20:09.472Z,6.00
2017-06-04T18:22:36.992Z,5.44
2017-06-04T18:25:04.545Z,4.18
2017-06-04T18:27:32.101Z,6.82
2017-06-04T18:30:00.443Z,8.42
2017-06-04T18:32:27.979Z,5.08
2017-06-04T18:34:55.560Z,6.72
2017-06-04T18:37:23.129Z,10.00
2017-06-04T18:39:51.463Z,6.22
2017-06-04T18:42:18.996Z,7.56
2017-06-04T18:44:46.611Z,3.50
2017-06-04T18:47:14.940Z,6.02
2017-06-04T18:49:42.506Z,6.10
2017-06-04T18:52:10.788Z,4.42
2017-06-04T18:54:38.299Z,4.90
2017-06-04T18:57:05.875Z,4.98
2017-06-04T18:59:33.389Z,5.46
2017-06-04T19:02:01.704Z,8.36
2017-06-04T19:04:29.337Z,5.16
2017-06-04T19:06:56.868Z,5.26
2017-06-04T19:09:24.408Z,9.34
2017-06-04T19:11:52.752Z,4.88
2017-06-04T19:14:20.320Z,3.66
2017-06-04T19:16:47.865Z,4.00
2017-06-04T19:19:16.258Z,5.34
2017-06-04T19:21:44.564Z,9.42
2017-06-04T19:24:12.102Z,9.92
2017-06-04T19:26:39.712Z,3.90
2017-06-04T19:29:07.262Z,6.20
2017-06-04T19:31:35.582Z,3.64
2017-06-04T19:34:03.154Z,7.28
2017-06-04T19:36:30.737Z,9.62
2017-06-04T19:38:58.280Z,7.76
2017-06-04T19:41:26.613Z,5.88
2017-06-04T19:43:54.250Z,4.72
2017-06-04T19:46:21.778Z,5.54
2017-06-04T19:48:49.355Z,6.44
2017-06-04T19:51:17.656Z,5.82
2017-06-04T19:53:45.198Z,5.54
2017-06-04T19:56:12.753Z,2.88
2017-06-04T19:58:40.265Z,6.28
2017-06-04T20:01:08.558Z,4.70
2017-06-04T20:03:36.099Z,4.92
2017-06-04T20:06:03.709Z,5.10
2017-06-04T20:08:31.261Z,5.30
2017-06-04T20:10:59.588Z,3.04
2017-06-04T20:13:27.133Z,2.88
2017-06-04T20:15:54.657Z,3.60
2017-06-04T20:18:22.277Z,4.84
2017-06-04T20:20:50.560Z,5.00
2017-06-04T20:23:18.132Z,2.80
2017-06-04T20:25:45.696Z,3.74
2017-06-04T20:28:13.225Z,14.28
2017-06-04T20:30:41.574Z,4.36
2017-06-04T20:33:09.097Z,7.16
2017-06-04T20:35:36.610Z,4.48
2017-06-04T20:38:04.233Z,3.90
2017-06-04T20:40:32.533Z,3.96
2017-06-04T20:43:00.077Z,6.76
2017-06-04T20:45:27.673Z,4.54
2017-06-04T20:47:55.236Z,3.24
2017-06-04T20:50:23.516Z,3.56
2017-06-04T20:52:51.090Z,7.26
2017-06-04T20:55:18.618Z,7.02
2017-06-04T20:57:46.137Z,3.70
2017-06-04T21:00:14.492Z,7.66
2017-06-04T21:02:41.999Z,8.28
2017-06-04T21:05:09.577Z,4.00
2017-06-04T21:07:37.105Z,4.96
2017-06-04T21:10:05.473Z,3.62
2017-06-04T21:12:33.012Z,6.26
2017-06-04T21:15:00.562Z,6.10
2017-06-04T21:17:28.153Z,8.74
2017-06-04T21:19:56.456Z,4.88
2017-06-04T21:22:24.002Z,3.62
2017-06-04T21:24:51.540Z,6.54
2017-06-04T21:27:19.065Z,4.28
2017-06-04T21:29:46.641Z,5.64
2017-06-04T21:32:14.940Z,18.26
2017-06-04T21:34:42.472Z,5.40
2017-06-04T21:37:10.077Z,7.94
2017-06-04T21:39:37.617Z,5.96
2017-06-04T21:42:05.925Z,3.38
2017-06-04T21:44:33.504Z,6.82
2017-06-04T21:47:01.085Z,3.60
2017-06-04T21:49:28.624Z,5.94
2017-06-04T21:51:56.996Z,5.02
2017-06-04T21:54:24.545Z,4.30
2017-06-04T21:56:52.088Z,4.00
2017-06-04T21:59:19.724Z,8.48
2017-06-04T22:01:48.032Z,7.54
2017-06-04T22:04:15.588Z,8.54
2017-06-04T22:06:43.173Z,4.44
2017-06-04T22:09:10.747Z,4.34
2017-06-04T22:11:39.053Z,5.50
2017-06-04T22:14:06.673Z,5.02
2017-06-04T22:16:34.224Z,4.08
2017-06-04T22:19:01.845Z,4.72
2017-06-04T22:21:30.171Z,5.36
2017-06-04T22:23:57.715Z,7.04
2017-06-04T22:26:25.336Z,4.86
2017-06-04T22:28:52.870Z,5.56
2017-06-04T22:31:21.218Z,9.86
2017-06-04T22:33:48.829Z,4.92
2017-06-04T22:36:16.375Z,10.22
2017-06-04T22:38:43.916Z,6.30
2017-06-04T22:41:12.300Z,6.34
2017-06-04T22:43:39.868Z,4.04
2017-06-04T22:46:07.498Z,7.74
2017-06-04T22:48:35.077Z,5.68
2017-06-04T22:51:03.385Z,5.64
2017-06-04T22:53:30.987Z,8.00
2017-06-04T22:55:58.558Z,7.44
2017-06-04T22:58:26.930Z,5.80
2017-06-04T23:00:55.342Z,4.10
2017-06-04T23:03:22.899Z,4.28
2017-06-04T23:05:50.480Z,6.22
2017-06-04T23:08:18.086Z,13.68
2017-06-04T23:10:46.433Z,5.46
2017-06-04T23:13:14.007Z,4.78
2017-06-04T23:15:41.645Z,5.38
2017-06-04T23:18:09.191Z,3.96
2017-06-04T23:20:37.580Z,6.18
2017-06-04T23:23:05.200Z,7.32
2017-06-04T23:25:32.775Z,6.94
2017-06-04T23:28:00.322Z,6.98
2017-06-04T23:30:28.719Z,11.38
2017-06-04T23:32:56.277Z,5.42
2017-06-04T23:35:23.841Z,4.02
2017-06-04T23:37:51.465Z,6.14
2017-06-04T23:40:19.824Z,4.40
2017-06-04T23:42:47.397Z,7.18
2017-06-04T23:45:15.013Z,6.72
2017-06-04T23:47:42.596Z,4.32
2017-06-04T23:50:10.936Z,5.12
2017-06-04T23:52:38.541Z,4.74
2017-06-04T23:55:06.109Z,6.12
2017-06-04T23:57:33.731Z,4.66
